sensor_id;sensor_type;location;lat;lon;timestamp;P1;durP1;ratioP1;P2;durP2;ratioP2
5209;SDS011;2624;48.048;11.706;2023-07-31T00:04:51;5.43;;;1.73;;
5209;SDS011;2624;48.048;11.706;2023-07-31T00:09:53;1.33;;;1.23;;
5209;SDS011;2624;48.048;11.706;2023-07-31T00:14:58;1.47;;;1.27;;
5209;SDS011;2624;48.048;11.706;2023-07-31T00:20:01;2.27;;;1.07;;
5209;SDS011;2624;48.048;11.706;2023-07-31T00:25:03;0.90;;;0.90;;
5209;SDS011;2624;48.048;11.706;2023-07-31T00:30:06;3.97;;;1.20;;
5209;SDS011;2624;48.048;11.706;2023-07-31T00:35:10;2.87;;;1.20;;
5209;SDS011;2624;48.048;11.706;2023-07-31T00:40:11;1.30;;;1.10;;
5209;SDS011;2624;48.048;11.706;2023-07-31T00:45:14;2.00;;;1.20;;
5209;SDS011;2624;48.048;11.706;2023-07-31T00:50:17;2.47;;;1.27;;
5209;SDS011;2624;48.048;11.706;2023-07-31T00:55:19;10.40;;;1.50;;
5209;SDS011;2624;48.048;11.706;2023-07-31T01:00:21;1.80;;;1.40;;
5209;SDS011;2624;48.048;11.706;2023-07-31T01:05:27;3.43;;;1.50;;
5209;SDS011;2624;48.048;11.706;2023-07-31T01:10:36;1.20;;;1.10;;
5209;SDS011;2624;48.048;11.706;2023-07-31T01:15:49;1.30;;;1.20;;
5209;SDS011;2624;48.048;11.706;2023-07-31T01:20:54;1.63;;;1.30;;
5209;SDS011;2624;48.048;11.706;2023-07-31T01:26:07;2.40;;;1.30;;
5209;SDS011;2624;48.048;11.706;2023-07-31T01:31:14;1.23;;;1.20;;
5209;SDS011;2624;48.048;11.706;2023-07-31T01:36:21;1.20;;;1.10;;
5209;SDS011;2624;48.048;11.706;2023-07-31T01:41:24;1.63;;;1.30;;
5209;SDS011;2624;48.048;11.706;2023-07-31T01:46:26;1.20;;;1.10;;
5209;SDS011;2624;48.048;11.706;2023-07-31T01:51:28;2.13;;;1.50;;
5209;SDS011;2624;48.048;11.706;2023-07-31T01:56:35;1.70;;;1.20;;
5209;SDS011;2624;48.048;11.706;2023-07-31T02:01:37;2.60;;;1.47;;
5209;SDS011;2624;48.048;11.706;2023-07-31T02:06:38;1.33;;;1.23;;
5209;SDS011;2624;48.048;11.706;2023-07-31T02:11:42;3.23;;;1.43;;
5209;SDS011;2624;48.048;11.706;2023-07-31T02:16:43;4.40;;;1.40;;
5209;SDS011;2624;48.048;11.706;2023-07-31T02:21:45;1.57;;;1.47;;
5209;SDS011;2624;48.048;11.706;2023-07-31T02:26:48;1.50;;;1.40;;
5209;SDS011;2624;48.048;11.706;2023-07-31T02:31:50;2.47;;;1.53;;
5209;SDS011;2624;48.048;11.706;2023-07-31T02:36:52;1.33;;;1.27;;
5209;SDS011;2624;48.048;11.706;2023-07-31T02:41:55;1.13;;;1.03;;
5209;SDS011;2624;48.048;11.706;2023-07-31T02:46:57;1.73;;;1.50;;
5209;SDS011;2624;48.048;11.706;2023-07-31T02:51:58;1.37;;;1.33;;
5209;SDS011;2624;48.048;11.706;2023-07-31T02:57:02;1.80;;;1.67;;
5209;SDS011;2624;48.048;11.706;2023-07-31T03:02:05;2.20;;;1.30;;
5209;SDS011;2624;48.048;11.706;2023-07-31T03:07:07;1.60;;;1.50;;
5209;SDS011;2624;48.048;11.706;2023-07-31T03:12:10;1.23;;;0.87;;
5209;SDS011;2624;48.048;11.706;2023-07-31T03:17:11;1.80;;;1.70;;
5209;SDS011;2624;48.048;11.706;2023-07-31T03:22:13;1.30;;;1.30;;
5209;SDS011;2624;48.048;11.706;2023-07-31T03:27:16;1.83;;;1.73;;
5209;SDS011;2624;48.048;11.706;2023-07-31T03:32:19;6.70;;;1.40;;
5209;SDS011;2624;48.048;11.706;2023-07-31T03:37:21;3.33;;;1.30;;
5209;SDS011;2624;48.048;11.706;2023-07-31T03:42:24;1.47;;;1.37;;
5209;SDS011;2624;48.048;11.706;2023-07-31T03:47:26;2.20;;;1.30;;
5209;SDS011;2624;48.048;11.706;2023-07-31T03:52:28;1.37;;;1.27;;
5209;SDS011;2624;48.048;11.706;2023-07-31T03:57:31;1.60;;;1.50;;
5209;SDS011;2624;48.048;11.706;2023-07-31T04:02:33;2.47;;;1.17;;
5209;SDS011;2624;48.048;11.706;2023-07-31T04:07:34;1.13;;;1.13;;
5209;SDS011;2624;48.048;11.706;2023-07-31T04:12:37;3.13;;;1.30;;
5209;SDS011;2624;48.048;11.706;2023-07-31T04:17:39;10.70;;;1.33;;
5209;SDS011;2624;48.048;11.706;2023-07-31T04:22:41;1.47;;;1.40;;
5209;SDS011;2624;48.048;11.706;2023-07-31T04:27:44;2.17;;;1.80;;
5209;SDS011;2624;48.048;11.706;2023-07-31T04:32:46;4.47;;;1.53;;
5209;SDS011;2624;48.048;11.706;2023-07-31T04:37:47;1.40;;;1.30;;
5209;SDS011;2624;48.048;11.706;2023-07-31T04:42:51;1.27;;;1.20;;
5209;SDS011;2624;48.048;11.706;2023-07-31T04:47:52;1.27;;;1.13;;
5209;SDS011;2624;48.048;11.706;2023-07-31T04:52:54;3.33;;;1.93;;
5209;SDS011;2624;48.048;11.706;2023-07-31T04:57:58;4.33;;;1.33;;
5209;SDS011;2624;48.048;11.706;2023-07-31T05:03:00;1.60;;;1.50;;
5209;SDS011;2624;48.048;11.706;2023-07-31T05:08:02;6.90;;;1.50;;
5209;SDS011;2624;48.048;11.706;2023-07-31T05:13:05;1.97;;;1.30;;
5209;SDS011;2624;48.048;11.706;2023-07-31T05:18:07;1.70;;;1.20;;
5209;SDS011;2624;48.048;11.706;2023-07-31T05:23:09;1.87;;;1.73;;
5209;SDS011;2624;48.048;11.706;2023-07-31T05:28:12;3.10;;;1.53;;
5209;SDS011;2624;48.048;11.706;2023-07-31T05:33:14;1.30;;;1.20;;
5209;SDS011;2624;48.048;11.706;2023-07-31T05:38:16;2.27;;;1.63;;
5209;SDS011;2624;48.048;11.706;2023-07-31T05:43:19;8.53;;;1.57;;
5209;SDS011;2624;48.048;11.706;2023-07-31T05:48:21;5.80;;;1.47;;
5209;SDS011;2624;48.048;11.706;2023-07-31T05:53:22;2.00;;;1.63;;
5209;SDS011;2624;48.048;11.706;2023-07-31T05:58:26;6.80;;;1.50;;
5209;SDS011;2624;48.048;11.706;2023-07-31T06:03:27;3.63;;;1.80;;
5209;SDS011;2624;48.048;11.706;2023-07-31T06:08:29;1.47;;;1.30;;
5209;SDS011;2624;48.048;11.706;2023-07-31T06:13:32;1.40;;;1.30;;
5209;SDS011;2624;48.048;11.706;2023-07-31T06:18:34;1.60;;;1.30;;
5209;SDS011;2624;48.048;11.706;2023-07-31T06:23:36;2.80;;;1.57;;
5209;SDS011;2624;48.048;11.706;2023-07-31T06:28:39;3.17;;;1.33;;
5209;SDS011;2624;48.048;11.706;2023-07-31T06:33:41;3.17;;;1.00;;
5209;SDS011;2624;48.048;11.706;2023-07-31T06:38:43;1.23;;;1.23;;
5209;SDS011;2624;48.048;11.706;2023-07-31T06:43:46;5.27;;;1.90;;
5209;SDS011;2624;48.048;11.706;2023-07-31T06:48:47;4.80;;;1.73;;
5209;SDS011;2624;48.048;11.706;2023-07-31T06:53:49;3.37;;;1.40;;
5209;SDS011;2624;48.048;11.706;2023-07-31T06:58:52;2.33;;;1.60;;
5209;SDS011;2624;48.048;11.706;2023-07-31T07:03:54;2.67;;;1.53;;
5209;SDS011;2624;48.048;11.706;2023-07-31T07:08:56;1.80;;;1.60;;
5209;SDS011;2624;48.048;11.706;2023-07-31T07:13:59;1.10;;;1.10;;
5209;SDS011;2624;48.048;11.706;2023-07-31T07:19:01;2.17;;;1.57;;
5209;SDS011;2624;48.048;11.706;2023-07-31T07:24:03;6.63;;;1.60;;
5209;SDS011;2624;48.048;11.706;2023-07-31T07:29:07;1.67;;;1.20;;
5209;SDS011;2624;48.048;11.706;2023-07-31T07:34:10;4.67;;;1.20;;
5209;SDS011;2624;48.048;11.706;2023-07-31T07:39:12;1.30;;;1.20;;
5209;SDS011;2624;48.048;11.706;2023-07-31T07:44:15;11.17;;;1.50;;
5209;SDS011;2624;48.048;11.706;2023-07-31T07:49:17;3.37;;;1.57;;
5209;SDS011;2624;48.048;11.706;2023-07-31T07:54:19;6.57;;;2.00;;
5209;SDS011;2624;48.048;11.706;2023-07-31T07:59:22;2.87;;;1.20;;
5209;SDS011;2624;48.048;11.706;2023-07-31T08:04:24;3.03;;;1.40;;
5209;SDS011;2624;48.048;11.706;2023-07-31T08:09:26;7.03;;;2.07;;
5209;SDS011;2624;48.048;11.706;2023-07-31T08:14:29;1.50;;;1.30;;
5209;SDS011;2624;48.048;11.706;2023-07-31T08:19:31;3.03;;;1.60;;
5209;SDS011;2624;48.048;11.706;2023-07-31T08:24:32;2.17;;;1.23;;
5209;SDS011;2624;48.048;11.706;2023-07-31T08:29:35;2.40;;;1.40;;
5209;SDS011;2624;48.048;11.706;2023-07-31T08:34:37;1.70;;;1.60;;
5209;SDS011;2624;48.048;11.706;2023-07-31T08:39:39;1.83;;;1.47;;
5209;SDS011;2624;48.048;11.706;2023-07-31T08:44:42;2.30;;;1.57;;
5209;SDS011;2624;48.048;11.706;2023-07-31T08:49:44;1.37;;;1.23;;
5209;SDS011;2624;48.048;11.706;2023-07-31T08:54:48;2.53;;;1.30;;
5209;SDS011;2624;48.048;11.706;2023-07-31T08:59:51;3.63;;;1.50;;
5209;SDS011;2624;48.048;11.706;2023-07-31T09:04:54;1.63;;;1.40;;
5209;SDS011;2624;48.048;11.706;2023-07-31T09:09:56;1.97;;;1.30;;
5209;SDS011;2624;48.048;11.706;2023-07-31T09:15:00;1.03;;;1.03;;
5209;SDS011;2624;48.048;11.706;2023-07-31T09:20:14;2.63;;;1.10;;
5209;SDS011;2624;48.048;11.706;2023-07-31T09:25:17;1.37;;;1.37;;
5209;SDS011;2624;48.048;11.706;2023-07-31T09:30:21;11.23;;;1.53;;
5209;SDS011;2624;48.048;11.706;2023-07-31T09:35:27;1.50;;;0.97;;
5209;SDS011;2624;48.048;11.706;2023-07-31T09:40:31;2.73;;;1.70;;
5209;SDS011;2624;48.048;11.706;2023-07-31T09:45:36;3.33;;;1.40;;
5209;SDS011;2624;48.048;11.706;2023-07-31T09:50:40;2.53;;;1.47;;
5209;SDS011;2624;48.048;11.706;2023-07-31T09:55:45;5.10;;;1.83;;
5209;SDS011;2624;48.048;11.706;2023-07-31T10:00:48;1.50;;;1.47;;
5209;SDS011;2624;48.048;11.706;2023-07-31T10:05:50;2.73;;;1.47;;
5209;SDS011;2624;48.048;11.706;2023-07-31T10:10:54;1.23;;;1.17;;
5209;SDS011;2624;48.048;11.706;2023-07-31T10:15:59;1.70;;;1.57;;
5209;SDS011;2624;48.048;11.706;2023-07-31T10:21:01;1.30;;;1.30;;
5209;SDS011;2624;48.048;11.706;2023-07-31T10:26:03;2.80;;;1.47;;
5209;SDS011;2624;48.048;11.706;2023-07-31T10:31:07;1.93;;;1.47;;
5209;SDS011;2624;48.048;11.706;2023-07-31T10:36:12;2.03;;;1.57;;
5209;SDS011;2624;48.048;11.706;2023-07-31T10:41:16;5.23;;;1.33;;
5209;SDS011;2624;48.048;11.706;2023-07-31T10:46:19;4.57;;;0.97;;
5209;SDS011;2624;48.048;11.706;2023-07-31T10:51:23;0.93;;;0.93;;
5209;SDS011;2624;48.048;11.706;2023-07-31T10:56:37;3.90;;;1.33;;
5209;SDS011;2624;48.048;11.706;2023-07-31T11:06:58;2.37;;;1.87;;
5209;SDS011;2624;48.048;11.706;2023-07-31T11:12:01;1.50;;;1.40;;
5209;SDS011;2624;48.048;11.706;2023-07-31T11:17:07;2.97;;;1.20;;
5209;SDS011;2624;48.048;11.706;2023-07-31T11:22:09;4.20;;;1.60;;
5209;SDS011;2624;48.048;11.706;2023-07-31T11:27:11;5.47;;;1.20;;
5209;SDS011;2624;48.048;11.706;2023-07-31T11:32:16;2.30;;;1.30;;
5209;SDS011;2624;48.048;11.706;2023-07-31T11:37:18;2.37;;;1.30;;
5209;SDS011;2624;48.048;11.706;2023-07-31T11:42:20;2.73;;;1.00;;
5209;SDS011;2624;48.048;11.706;2023-07-31T11:47:24;1.00;;;1.00;;
5209;SDS011;2624;48.048;11.706;2023-07-31T11:52:27;1.37;;;1.27;;
5209;SDS011;2624;48.048;11.706;2023-07-31T11:57:31;7.43;;;1.60;;
5209;SDS011;2624;48.048;11.706;2023-07-31T12:02:34;3.13;;;1.53;;
5209;SDS011;2624;48.048;11.706;2023-07-31T12:07:46;2.23;;;1.57;;
5209;SDS011;2624;48.048;11.706;2023-07-31T12:12:55;1.40;;;1.30;;
5209;SDS011;2624;48.048;11.706;2023-07-31T12:18:04;2.30;;;1.33;;
5209;SDS011;2624;48.048;11.706;2023-07-31T12:23:07;1.20;;;1.20;;
5209;SDS011;2624;48.048;11.706;2023-07-31T12:28:15;1.30;;;1.30;;
5209;SDS011;2624;48.048;11.706;2023-07-31T12:33:18;2.40;;;1.70;;
5209;SDS011;2624;48.048;11.706;2023-07-31T12:38:20;7.30;;;1.13;;
5209;SDS011;2624;48.048;11.706;2023-07-31T12:43:22;1.77;;;1.67;;
5209;SDS011;2624;48.048;11.706;2023-07-31T12:48:25;1.60;;;1.50;;
5209;SDS011;2624;48.048;11.706;2023-07-31T12:53:27;2.10;;;1.10;;
5209;SDS011;2624;48.048;11.706;2023-07-31T12:58:28;1.50;;;1.47;;
5209;SDS011;2624;48.048;11.706;2023-07-31T13:03:32;2.73;;;1.20;;
5209;SDS011;2624;48.048;11.706;2023-07-31T13:08:33;2.20;;;1.30;;
5209;SDS011;2624;48.048;11.706;2023-07-31T13:13:35;1.47;;;1.30;;
5209;SDS011;2624;48.048;11.706;2023-07-31T13:18:38;1.53;;;1.13;;
5209;SDS011;2624;48.048;11.706;2023-07-31T13:23:40;1.00;;;1.00;;
5209;SDS011;2624;48.048;11.706;2023-07-31T13:28:42;2.30;;;1.20;;
5209;SDS011;2624;48.048;11.706;2023-07-31T13:33:45;2.20;;;0.93;;
5209;SDS011;2624;48.048;11.706;2023-07-31T13:38:47;5.03;;;1.57;;
5209;SDS011;2624;48.048;11.706;2023-07-31T13:43:48;1.40;;;1.30;;
5209;SDS011;2624;48.048;11.706;2023-07-31T13:48:51;2.03;;;1.10;;
5209;SDS011;2624;48.048;11.706;2023-07-31T13:53:55;1.27;;;0.80;;
5209;SDS011;2624;48.048;11.706;2023-07-31T13:58:57;2.60;;;1.00;;
5209;SDS011;2624;48.048;11.706;2023-07-31T14:04:02;2.30;;;1.10;;
5209;SDS011;2624;48.048;11.706;2023-07-31T14:09:03;1.87;;;1.20;;
5209;SDS011;2624;48.048;11.706;2023-07-31T14:14:06;1.23;;;0.90;;
5209;SDS011;2624;48.048;11.706;2023-07-31T14:19:09;0.90;;;0.90;;
5209;SDS011;2624;48.048;11.706;2023-07-31T14:24:11;0.63;;;0.63;;
5209;SDS011;2624;48.048;11.706;2023-07-31T14:29:13;1.07;;;0.70;;
5209;SDS011;2624;48.048;11.706;2023-07-31T14:34:16;1.20;;;1.10;;
5209;SDS011;2624;48.048;11.706;2023-07-31T14:39:17;1.40;;;0.97;;
5209;SDS011;2624;48.048;11.706;2023-07-31T14:44:19;2.47;;;0.70;;
5209;SDS011;2624;48.048;11.706;2023-07-31T14:49:22;1.13;;;0.77;;
5209;SDS011;2624;48.048;11.706;2023-07-31T14:54:24;2.47;;;1.10;;
5209;SDS011;2624;48.048;11.706;2023-07-31T14:59:26;2.67;;;1.07;;
5209;SDS011;2624;48.048;11.706;2023-07-31T15:04:29;2.00;;;1.00;;
5209;SDS011;2624;48.048;11.706;2023-07-31T15:09:31;2.50;;;0.93;;
5209;SDS011;2624;48.048;11.706;2023-07-31T15:14:33;3.47;;;1.20;;
5209;SDS011;2624;48.048;11.706;2023-07-31T15:19:36;2.13;;;1.80;;
5209;SDS011;2624;48.048;11.706;2023-07-31T15:24:37;1.10;;;0.90;;
5209;SDS011;2624;48.048;11.706;2023-07-31T15:29:39;1.00;;;1.00;;
5209;SDS011;2624;48.048;11.706;2023-07-31T15:34:43;1.17;;;1.07;;
5209;SDS011;2624;48.048;11.706;2023-07-31T15:39:45;2.93;;;1.00;;
5209;SDS011;2624;48.048;11.706;2023-07-31T15:44:46;1.90;;;1.40;;
5209;SDS011;2624;48.048;11.706;2023-07-31T15:49:49;1.47;;;1.30;;
5209;SDS011;2624;48.048;11.706;2023-07-31T15:54:51;1.20;;;1.20;;
5209;SDS011;2624;48.048;11.706;2023-07-31T15:59:53;2.60;;;1.57;;
5209;SDS011;2624;48.048;11.706;2023-07-31T16:04:56;2.73;;;1.47;;
5209;SDS011;2624;48.048;11.706;2023-07-31T16:09:58;2.40;;;1.93;;
5209;SDS011;2624;48.048;11.706;2023-07-31T16:15:00;8.80;;;1.90;;
5209;SDS011;2624;48.048;11.706;2023-07-31T16:20:03;1.80;;;1.80;;
5209;SDS011;2624;48.048;11.706;2023-07-31T16:25:06;1.73;;;1.63;;
5209;SDS011;2624;48.048;11.706;2023-07-31T16:30:10;3.63;;;1.53;;
5209;SDS011;2624;48.048;11.706;2023-07-31T16:35:13;2.00;;;1.90;;
5209;SDS011;2624;48.048;11.706;2023-07-31T16:40:15;3.80;;;1.90;;
5209;SDS011;2624;48.048;11.706;2023-07-31T16:45:17;3.00;;;1.53;;
5209;SDS011;2624;48.048;11.706;2023-07-31T16:50:20;2.33;;;1.97;;
5209;SDS011;2624;48.048;11.706;2023-07-31T16:55:22;3.50;;;1.90;;
5209;SDS011;2624;48.048;11.706;2023-07-31T17:00:24;1.80;;;1.70;;
5209;SDS011;2624;48.048;11.706;2023-07-31T17:05:27;1.83;;;1.73;;
5209;SDS011;2624;48.048;11.706;2023-07-31T17:10:29;1.73;;;1.63;;
5209;SDS011;2624;48.048;11.706;2023-07-31T17:15:30;5.33;;;1.87;;
5209;SDS011;2624;48.048;11.706;2023-07-31T17:20:33;2.17;;;1.80;;
5209;SDS011;2624;48.048;11.706;2023-07-31T17:25:37;4.30;;;1.60;;
5209;SDS011;2624;48.048;11.706;2023-07-31T17:30:39;2.10;;;1.90;;
5209;SDS011;2624;48.048;11.706;2023-07-31T17:35:42;2.93;;;1.70;;
5209;SDS011;2624;48.048;11.706;2023-07-31T17:40:44;2.60;;;1.60;;
5209;SDS011;2624;48.048;11.706;2023-07-31T17:45:46;5.30;;;2.17;;
5209;SDS011;2624;48.048;11.706;2023-07-31T17:50:50;2.77;;;1.37;;
5209;SDS011;2624;48.048;11.706;2023-07-31T17:55:52;1.67;;;1.57;;
5209;SDS011;2624;48.048;11.706;2023-07-31T18:00:54;1.47;;;1.37;;
5209;SDS011;2624;48.048;11.706;2023-07-31T18:05:57;3.37;;;1.97;;
5209;SDS011;2624;48.048;11.706;2023-07-31T18:10:59;1.80;;;1.70;;
5209;SDS011;2624;48.048;11.706;2023-07-31T18:16:01;2.27;;;2.07;;
5209;SDS011;2624;48.048;11.706;2023-07-31T18:21:04;2.13;;;1.90;;
5209;SDS011;2624;48.048;11.706;2023-07-31T18:26:06;1.83;;;1.73;;
5209;SDS011;2624;48.048;11.706;2023-07-31T18:31:08;1.50;;;1.40;;
5209;SDS011;2624;48.048;11.706;2023-07-31T18:36:11;2.40;;;1.80;;
5209;SDS011;2624;48.048;11.706;2023-07-31T18:41:12;3.20;;;2.23;;
5209;SDS011;2624;48.048;11.706;2023-07-31T18:46:14;4.77;;;2.47;;
5209;SDS011;2624;48.048;11.706;2023-07-31T18:51:18;1.83;;;1.67;;
5209;SDS011;2624;48.048;11.706;2023-07-31T18:56:20;2.07;;;1.97;;
5209;SDS011;2624;48.048;11.706;2023-07-31T19:01:22;3.30;;;2.57;;
5209;SDS011;2624;48.048;11.706;2023-07-31T19:06:26;3.17;;;1.60;;
5209;SDS011;2624;48.048;11.706;2023-07-31T19:11:28;1.90;;;1.80;;
5209;SDS011;2624;48.048;11.706;2023-07-31T19:16:29;2.27;;;2.10;;
5209;SDS011;2624;48.048;11.706;2023-07-31T19:21:33;3.43;;;1.70;;
5209;SDS011;2624;48.048;11.706;2023-07-31T19:26:34;2.60;;;2.23;;
5209;SDS011;2624;48.048;11.706;2023-07-31T19:31:36;4.53;;;2.07;;
5209;SDS011;2624;48.048;11.706;2023-07-31T19:36:39;5.40;;;1.93;;
5209;SDS011;2624;48.048;11.706;2023-07-31T19:41:42;4.00;;;2.70;;
5209;SDS011;2624;48.048;11.706;2023-07-31T19:46:44;3.90;;;2.70;;
5209;SDS011;2624;48.048;11.706;2023-07-31T19:51:47;8.40;;;2.33;;
5209;SDS011;2624;48.048;11.706;2023-07-31T19:56:48;16.83;;;2.93;;
5209;SDS011;2624;48.048;11.706;2023-07-31T20:01:51;3.93;;;2.50;;
5209;SDS011;2624;48.048;11.706;2023-07-31T20:06:54;2.50;;;2.40;;
5209;SDS011;2624;48.048;11.706;2023-07-31T20:11:56;2.80;;;1.70;;
5209;SDS011;2624;48.048;11.706;2023-07-31T20:16:59;2.43;;;1.93;;
5209;SDS011;2624;48.048;11.706;2023-07-31T20:22:02;3.33;;;2.60;;
5209;SDS011;2624;48.048;11.706;2023-07-31T20:27:04;2.07;;;1.97;;
5209;SDS011;2624;48.048;11.706;2023-07-31T20:32:07;2.07;;;1.77;;
5209;SDS011;2624;48.048;11.706;2023-07-31T20:37:10;2.30;;;2.10;;
5209;SDS011;2624;48.048;11.706;2023-07-31T20:42:12;4.03;;;1.90;;
5209;SDS011;2624;48.048;11.706;2023-07-31T20:47:17;2.50;;;2.20;;
5209;SDS011;2624;48.048;11.706;2023-07-31T20:52:20;2.30;;;2.10;;
5209;SDS011;2624;48.048;11.706;2023-07-31T20:57:22;2.60;;;2.40;;
5209;SDS011;2624;48.048;11.706;2023-07-31T21:02:23;2.30;;;2.10;;
5209;SDS011;2624;48.048;11.706;2023-07-31T21:07:26;5.53;;;2.47;;
5209;SDS011;2624;48.048;11.706;2023-07-31T21:12:28;2.30;;;2.10;;
5209;SDS011;2624;48.048;11.706;2023-07-31T21:17:30;5.60;;;2.10;;
5209;SDS011;2624;48.048;11.706;2023-07-31T21:22:33;3.47;;;2.27;;
5209;SDS011;2624;48.048;11.706;2023-07-31T21:27:35;4.13;;;2.20;;
5209;SDS011;2624;48.048;11.706;2023-07-31T21:32:37;2.10;;;2.00;;
5209;SDS011;2624;48.048;11.706;2023-07-31T21:37:40;2.33;;;1.90;;
5209;SDS011;2624;48.048;11.706;2023-07-31T21:42:42;2.23;;;2.03;;
5209;SDS011;2624;48.048;11.706;2023-07-31T21:47:44;5.40;;;2.10;;
5209;SDS011;2624;48.048;11.706;2023-07-31T21:52:47;1.97;;;1.80;;
5209;SDS011;2624;48.048;11.706;2023-07-31T21:57:49;3.33;;;2.10;;
5209;SDS011;2624;48.048;11.706;2023-07-31T22:02:51;2.40;;;2.20;;
5209;SDS011;2624;48.048;11.706;2023-07-31T22:07:55;2.17;;;2.07;;
5209;SDS011;2624;48.048;11.706;2023-07-31T22:12:57;2.40;;;2.20;;
5209;SDS011;2624;48.048;11.706;2023-07-31T22:17:58;2.60;;;1.77;;
5209;SDS011;2624;48.048;11.706;2023-07-31T22:23:01;2.70;;;2.00;;
5209;SDS011;2624;48.048;11.706;2023-07-31T22:28:03;1.63;;;1.53;;
5209;SDS011;2624;48.048;11.706;2023-07-31T22:33:05;1.87;;;1.43;;
5209;SDS011;2624;48.048;11.706;2023-07-31T22:38:08;2.50;;;2.20;;
5209;SDS011;2624;48.048;11.706;2023-07-31T22:43:10;6.93;;;2.20;;
5209;SDS011;2624;48.048;11.706;2023-07-31T22:48:12;4.30;;;1.70;;
5209;SDS011;2624;48.048;11.706;2023-07-31T22:53:15;4.50;;;1.80;;
5209;SDS011;2624;48.048;11.706;2023-07-31T22:58:17;1.70;;;1.60;;
5209;SDS011;2624;48.048;11.706;2023-07-31T23:03:19;2.50;;;1.47;;
5209;SDS011;2624;48.048;11.706;2023-07-31T23:08:22;2.17;;;1.97;;
5209;SDS011;2624;48.048;11.706;2023-07-31T23:13:24;3.10;;;2.03;;
5209;SDS011;2624;48.048;11.706;2023-07-31T23:18:26;2.00;;;1.90;;
5209;SDS011;2624;48.048;11.706;2023-07-31T23:23:29;2.10;;;1.80;;
5209;SDS011;2624;48.048;11.706;2023-07-31T23:28:30;1.87;;;1.77;;
5209;SDS011;2624;48.048;11.706;2023-07-31T23:33:32;2.20;;;1.97;;
5209;SDS011;2624;48.048;11.706;2023-07-31T23:38:35;2.20;;;2.10;;
5209;SDS011;2624;48.048;11.706;2023-07-31T23:43:37;11.83;;;2.00;;
5209;SDS011;2624;48.048;11.706;2023-07-31T23:48:39;1.90;;;1.77;;
5209;SDS011;2624;48.048;11.706;2023-07-31T23:53:42;1.40;;;1.30;;
5209;SDS011;2624;48.048;11.706;2023-07-31T23:58:44;2.33;;;2.13;;
